createdAt,value
2023-02-03T00:02:01.556Z,4.63
2023-02-03T00:04:28.896Z,9.52
2023-02-03T00:06:56.593Z,7.60
2023-02-03T00:09:24.013Z,4.70
2023-02-03T00:11:51.408Z,8.77
2023-02-03T00:14:20.464Z,8.20
2023-02-03T00:16:49.939Z,8.68
2023-02-03T00:19:19.843Z,8.70
2023-02-03T00:21:47.445Z,5.78
2023-02-03T00:24:17.487Z,14.95
2023-02-03T00:26:44.958Z,8.93
2023-02-03T00:29:13.837Z,5.63
2023-02-03T00:31:41.776Z,8.05
2023-02-03T00:34:09.345Z,9.48
2023-02-03T00:36:36.620Z,4.45
2023-02-03T00:39:03.917Z,7.30
2023-02-03T00:41:31.823Z,6.35
2023-02-03T00:43:59.269Z,7.28
2023-02-03T00:46:29.260Z,4.28
2023-02-03T00:48:56.609Z,5.30
2023-02-03T00:51:23.941Z,3.78
2023-02-03T00:53:51.291Z,6.57
2023-02-03T00:56:21.852Z,5.75
2023-02-03T00:58:49.084Z,7.47
2023-02-03T01:01:17.273Z,13.10
2023-02-03T01:03:44.596Z,7.93
2023-02-03T01:06:20.624Z,7.82
2023-02-03T01:08:49.786Z,9.93
2023-02-03T01:11:20.555Z,10.73
2023-02-03T01:13:50.456Z,5.22
2023-02-03T01:16:20.007Z,8.35
2023-02-03T01:18:48.495Z,7.22
2023-02-03T01:21:19.206Z,5.82
2023-02-03T01:26:16.547Z,8.43
2023-02-03T01:28:44.055Z,3.07
2023-02-03T01:31:19.254Z,11.82
2023-02-03T01:33:48.836Z,5.40
2023-02-03T01:36:17.817Z,8.65
2023-02-03T01:38:45.678Z,9.55
2023-02-03T01:41:19.391Z,9.80
2023-02-03T01:43:51.224Z,9.27
2023-02-03T01:46:28.353Z,9.10
2023-02-03T01:49:18.787Z,5.80
2023-02-03T01:51:46.155Z,12.65
2023-02-03T01:54:19.083Z,4.13
2023-02-03T01:56:52.356Z,6.18
2023-02-03T01:59:22.081Z,9.73
2023-02-03T02:01:52.497Z,5.70
2023-02-03T02:04:22.277Z,10.03
2023-02-03T02:06:51.726Z,5.97
2023-02-03T02:09:19.066Z,9.10
2023-02-03T02:11:46.417Z,6.53
2023-02-03T02:14:13.751Z,5.47
2023-02-03T02:16:59.754Z,7.00
2023-02-03T02:19:42.460Z,5.38
2023-02-03T02:22:42.391Z,6.60
2023-02-03T02:25:52.899Z,4.93
2023-02-03T02:28:39.684Z,9.38
2023-02-03T02:31:36.988Z,7.47
2023-02-03T02:34:10.906Z,7.47
2023-02-03T02:37:07.743Z,8.45
2023-02-03T02:39:46.991Z,9.32
2023-02-03T02:42:32.019Z,10.27
2023-02-03T02:45:10.568Z,5.57
2023-02-03T02:47:38.970Z,8.25
2023-02-03T02:50:22.733Z,7.72
2023-02-03T02:52:51.618Z,8.43
2023-02-03T02:55:27.902Z,12.15
2023-02-03T02:58:04.194Z,15.23
2023-02-03T03:00:33.409Z,10.95
2023-02-03T03:03:18.953Z,6.13
2023-02-03T03:05:54.183Z,5.53
2023-02-03T03:08:41.853Z,12.45
2023-02-03T03:11:11.571Z,8.02
2023-02-03T03:13:45.506Z,14.32
2023-02-03T03:16:15.316Z,6.05
2023-02-03T03:19:11.855Z,14.15
2023-02-03T03:21:54.179Z,11.20
2023-02-03T03:24:29.571Z,8.57
2023-02-03T03:27:13.621Z,8.55
2023-02-03T03:30:05.663Z,8.23
2023-02-03T03:32:33.759Z,13.20
2023-02-03T03:35:03.062Z,7.72
2023-02-03T03:37:57.181Z,8.38
2023-02-03T03:40:33.088Z,7.53
2023-02-03T03:43:08.223Z,8.52
2023-02-03T03:45:41.507Z,10.05
2023-02-03T03:48:33.621Z,10.60
2023-02-03T03:51:06.530Z,8.82
2023-02-03T03:53:38.495Z,12.75
2023-02-03T03:56:10.066Z,10.95
2023-02-03T03:58:39.690Z,8.20
2023-02-03T04:01:08.485Z,6.53
2023-02-03T04:03:41.938Z,9.73
2023-02-03T04:06:11.295Z,9.27
2023-02-03T04:08:39.609Z,4.80
2023-02-03T04:11:07.815Z,10.82
2023-02-03T04:13:35.306Z,7.65
2023-02-03T04:16:02.720Z,7.55
2023-02-03T04:18:30.279Z,12.77
2023-02-03T04:20:58.435Z,5.65
2023-02-03T04:23:25.633Z,8.68
2023-02-03T04:25:52.948Z,8.05
2023-02-03T04:28:20.474Z,10.65
2023-02-03T04:30:49.326Z,13.35
2023-02-03T04:33:17.075Z,16.35
2023-02-03T04:35:44.319Z,11.02
2023-02-03T04:38:11.634Z,9.82
2023-02-03T04:40:38.844Z,7.20
2023-02-03T04:43:09.864Z,7.32
2023-02-03T04:45:37.629Z,12.38
2023-02-03T04:48:05.054Z,7.35
2023-02-03T04:50:33.069Z,4.97
2023-02-03T04:53:01.195Z,8.93
2023-02-03T04:55:28.722Z,7.07
2023-02-03T04:57:57.784Z,5.82
2023-02-03T05:00:26.025Z,6.07
2023-02-03T05:02:53.655Z,6.28
2023-02-03T05:05:22.475Z,6.75
2023-02-03T05:07:49.873Z,8.48
2023-02-03T05:10:17.245Z,7.63
2023-02-03T05:12:44.703Z,13.27
2023-02-03T05:15:11.949Z,6.78
2023-02-03T05:17:40.940Z,4.70
2023-02-03T05:20:09.167Z,10.00
2023-02-03T05:22:36.643Z,9.82
2023-02-03T05:25:04.682Z,7.75
2023-02-03T05:27:32.469Z,10.75
2023-02-03T05:29:59.754Z,6.40
2023-02-03T05:32:27.485Z,10.27
2023-02-03T05:34:55.229Z,12.93
2023-02-03T05:37:25.824Z,9.45
2023-02-03T05:39:53.077Z,11.73
2023-02-03T05:42:20.224Z,9.98
2023-02-03T05:44:47.843Z,11.27
2023-02-03T05:47:15.136Z,10.93
2023-02-03T05:49:42.501Z,11.55
2023-02-03T05:52:09.797Z,8.93
2023-02-03T05:54:37.137Z,13.05
2023-02-03T05:57:04.391Z,12.23
2023-02-03T05:59:31.641Z,7.95
2023-02-03T06:01:58.962Z,12.25
2023-02-03T06:04:26.502Z,12.35
2023-02-03T06:06:53.811Z,10.13
2023-02-03T06:09:21.915Z,12.00
2023-02-03T06:11:49.357Z,15.45
2023-02-03T06:14:16.672Z,10.27
2023-02-03T06:16:44.054Z,14.48
2023-02-03T06:19:11.593Z,11.98
2023-02-03T06:21:38.848Z,10.48
2023-02-03T06:24:06.981Z,13.25
2023-02-03T06:26:34.253Z,12.30
2023-02-03T06:29:01.564Z,12.20
2023-02-03T06:31:29.056Z,13.45
2023-02-03T06:33:58.031Z,11.40
2023-02-03T06:36:25.770Z,15.90
2023-02-03T06:38:53.844Z,12.80
2023-02-03T06:41:27.054Z,23.38
2023-02-03T06:43:54.444Z,18.30
2023-02-03T06:46:23.287Z,16.10
2023-02-03T06:48:50.597Z,15.63
2023-02-03T06:51:17.900Z,17.33
2023-02-03T06:53:45.133Z,14.90
2023-02-03T06:56:12.435Z,15.93
2023-02-03T06:58:40.922Z,17.08
2023-02-03T07:01:08.243Z,15.13
2023-02-03T07:03:35.565Z,11.90
2023-02-03T07:06:03.167Z,18.05
2023-02-03T07:08:30.412Z,19.65
2023-02-03T07:10:58.279Z,15.57
2023-02-03T07:13:25.684Z,13.55
2023-02-03T07:15:53.163Z,15.95
2023-02-03T07:18:45.593Z,16.70
2023-02-03T07:21:13.056Z,19.27
2023-02-03T07:23:41.778Z,11.95
2023-02-03T07:26:10.838Z,21.13
2023-02-03T07:28:38.227Z,15.98
2023-02-03T07:31:05.802Z,19.38
2023-02-03T07:33:34.570Z,22.95
2023-02-03T07:36:02.177Z,17.83
2023-02-03T07:38:30.079Z,19.95
2023-02-03T07:40:57.659Z,23.35
2023-02-03T07:43:25.506Z,25.88
2023-02-03T07:45:52.787Z,15.57
2023-02-03T07:48:20.797Z,25.75
2023-02-03T07:50:49.059Z,17.42
2023-02-03T07:53:17.180Z,20.80
2023-02-03T07:55:44.529Z,17.55
2023-02-03T07:58:11.836Z,20.20
2023-02-03T08:00:39.129Z,31.40
2023-02-03T08:03:06.455Z,26.58
2023-02-03T08:05:33.847Z,17.20
2023-02-03T08:08:01.217Z,17.42
2023-02-03T08:10:28.772Z,23.40
2023-02-03T08:12:58.983Z,22.88
2023-02-03T08:15:26.263Z,27.20
2023-02-03T08:17:53.600Z,23.63
2023-02-03T08:20:21.280Z,22.95
2023-02-03T08:22:48.633Z,21.10
2023-02-03T08:25:17.344Z,24.85
2023-02-03T08:27:44.609Z,24.90
2023-02-03T08:30:13.856Z,28.27
2023-02-03T08:32:41.390Z,33.72
2023-02-03T08:35:09.131Z,28.95
2023-02-03T08:37:36.550Z,25.70
2023-02-03T08:40:04.867Z,41.00
2023-02-03T08:42:32.534Z,24.70
2023-02-03T08:44:59.816Z,28.42
2023-02-03T08:47:27.179Z,26.25
2023-02-03T08:49:54.561Z,28.55
2023-02-03T08:52:23.765Z,29.55
2023-02-03T08:54:51.162Z,24.63
2023-02-03T08:57:18.501Z,24.20
2023-02-03T08:59:45.873Z,39.28
2023-02-03T09:02:19.038Z,33.33
2023-02-03T09:04:55.783Z,24.25
2023-02-03T09:07:23.678Z,28.88
2023-02-03T09:09:51.065Z,33.72
2023-02-03T09:12:18.338Z,23.60
2023-02-03T09:14:45.739Z,30.35
2023-02-03T09:17:13.007Z,40.42
2023-02-03T09:19:41.934Z,29.20
2023-02-03T09:22:09.200Z,37.22
2023-02-03T09:24:37.901Z,32.15
2023-02-03T09:27:05.257Z,29.63
2023-02-03T09:29:32.967Z,33.95
2023-02-03T09:32:01.488Z,29.83
2023-02-03T09:34:28.952Z,32.50
2023-02-03T09:36:56.224Z,33.38
2023-02-03T09:39:24.170Z,28.42
2023-02-03T09:42:03.353Z,34.03
2023-02-03T09:44:48.225Z,36.17
2023-02-03T09:47:29.432Z,38.08
2023-02-03T09:50:03.592Z,44.60
2023-02-03T09:52:37.410Z,32.15
2023-02-03T09:55:28.475Z,39.15
2023-02-03T09:58:03.503Z,25.40
2023-02-03T10:00:41.285Z,39.63
2023-02-03T10:03:15.233Z,34.50
2023-02-03T10:06:23.652Z,40.65
2023-02-03T10:09:25.292Z,34.83
2023-02-03T10:11:58.459Z,35.67
2023-02-03T10:14:44.453Z,39.25
2023-02-03T10:17:30.762Z,33.47
2023-02-03T10:20:36.076Z,35.88
2023-02-03T10:23:11.597Z,25.73
2023-02-03T10:25:44.731Z,38.83
2023-02-03T10:28:18.760Z,26.58
2023-02-03T10:30:56.630Z,32.10
2023-02-03T10:33:29.885Z,27.70
2023-02-03T10:36:23.482Z,34.35
2023-02-03T10:39:08.283Z,42.08
2023-02-03T10:41:35.721Z,32.58
2023-02-03T10:44:07.363Z,38.40
2023-02-03T10:46:41.464Z,29.20
2023-02-03T10:49:13.016Z,33.95
2023-02-03T10:51:53.181Z,39.53
2023-02-03T10:54:29.676Z,37.72
2023-02-03T10:57:03.717Z,33.90
2023-02-03T10:59:35.898Z,43.15
2023-02-03T11:02:32.548Z,37.90
2023-02-03T11:05:21.812Z,41.90
2023-02-03T11:07:49.326Z,49.45
2023-02-03T11:10:34.339Z,34.53
2023-02-03T11:13:25.076Z,35.85
2023-02-03T11:16:17.896Z,45.33
2023-02-03T11:19:11.431Z,49.47
2023-02-03T11:21:38.849Z,29.90
2023-02-03T11:24:06.473Z,40.42
2023-02-03T11:26:40.300Z,38.15
2023-02-03T11:29:17.699Z,42.45
2023-02-03T11:31:49.245Z,32.40
2023-02-03T11:34:28.900Z,39.55
2023-02-03T11:36:56.893Z,47.15
2023-02-03T11:39:35.501Z,29.83
2023-02-03T11:42:03.673Z,38.65
2023-02-03T11:44:33.770Z,40.17
2023-02-03T11:47:09.469Z,45.63
2023-02-03T11:49:55.197Z,50.08
2023-02-03T11:52:51.126Z,37.65
2023-02-03T11:55:33.284Z,50.45
2023-02-03T11:58:38.334Z,32.58
2023-02-03T12:01:43.267Z,46.30
2023-02-03T12:04:44.723Z,37.10
2023-02-03T12:07:15.112Z,45.35
2023-02-03T12:10:03.833Z,32.30
2023-02-03T12:12:57.672Z,39.95
2023-02-03T12:15:44.057Z,40.05
2023-02-03T12:18:29.502Z,30.75
2023-02-03T12:21:05.882Z,25.67
2023-02-03T12:23:33.345Z,30.50
2023-02-03T12:26:17.466Z,28.65
2023-02-03T12:28:54.149Z,36.60
2023-02-03T12:31:38.224Z,36.30
2023-02-03T12:34:34.513Z,37.20
2023-02-03T12:37:22.090Z,38.80
2023-02-03T12:40:02.974Z,27.10
2023-02-03T12:43:02.666Z,39.38
2023-02-03T12:45:35.077Z,28.42
2023-02-03T12:48:11.988Z,32.13
2023-02-03T12:50:50.129Z,30.65
2023-02-03T12:53:24.906Z,33.38
2023-02-03T12:56:01.031Z,28.63
2023-02-03T12:58:40.145Z,29.48
2023-02-03T13:01:24.121Z,26.02
2023-02-03T13:03:56.812Z,23.23
2023-02-03T13:06:32.971Z,30.02
2023-02-03T13:09:18.342Z,30.35
2023-02-03T13:12:04.342Z,31.70
2023-02-03T13:14:49.229Z,30.10
2023-02-03T13:17:29.764Z,35.05
2023-02-03T13:20:04.842Z,33.72
2023-02-03T13:22:32.489Z,29.60
2023-02-03T13:25:47.071Z,45.20
2023-02-03T13:28:26.414Z,42.35
2023-02-03T13:31:18.518Z,40.15
2023-02-03T13:34:01.969Z,41.60
2023-02-03T13:37:00.918Z,35.47
2023-02-03T13:39:45.991Z,36.03
2023-02-03T13:42:19.438Z,34.55
2023-02-03T13:44:51.577Z,32.03
2023-02-03T13:47:27.348Z,32.50
2023-02-03T13:50:17.730Z,30.45
2023-02-03T13:52:57.173Z,21.20
2023-02-03T13:55:29.761Z,32.28
2023-02-03T13:57:58.229Z,36.03
2023-02-03T14:00:50.209Z,36.08
2023-02-03T14:03:27.104Z,34.80
2023-02-03T14:06:03.638Z,41.55
2023-02-03T14:08:30.883Z,40.50
2023-02-03T14:11:35.442Z,35.90
2023-02-03T14:14:06.840Z,40.50
2023-02-03T14:16:46.170Z,41.67
2023-02-03T14:19:13.630Z,38.88
2023-02-03T14:22:08.769Z,34.33
2023-02-03T14:24:42.040Z,36.88
2023-02-03T14:27:25.515Z,44.28
2023-02-03T14:30:14.774Z,30.55
2023-02-03T14:32:49.009Z,30.67
2023-02-03T14:35:22.189Z,28.33
2023-02-03T14:37:58.737Z,38.90
2023-02-03T14:40:58.545Z,29.55
2023-02-03T14:43:31.943Z,28.50
2023-02-03T14:46:02.395Z,26.27
2023-02-03T14:48:48.449Z,26.90
2023-02-03T14:51:15.706Z,36.42
2023-02-03T14:54:16.736Z,30.58
2023-02-03T14:59:39.040Z,37.33
2023-02-03T15:02:14.844Z,33.75
2023-02-03T15:04:43.531Z,42.13
2023-02-03T15:07:37.299Z,43.55
2023-02-03T15:10:13.740Z,34.38
2023-02-03T15:12:48.034Z,39.20
2023-02-03T15:15:23.760Z,35.17
2023-02-03T15:17:53.037Z,36.15
2023-02-03T15:20:35.492Z,32.92
2023-02-03T15:23:03.405Z,29.02
2023-02-03T15:25:33.556Z,27.70
2023-02-03T15:28:19.443Z,29.15
2023-02-03T15:30:51.820Z,30.05
2023-02-03T15:33:22.433Z,32.85
2023-02-03T15:35:55.823Z,23.02
2023-02-03T15:38:41.218Z,32.97
2023-02-03T15:41:17.294Z,33.03
2023-02-03T15:43:47.014Z,31.15
2023-02-03T15:46:26.144Z,38.20
2023-02-03T15:49:02.404Z,31.08
2023-02-03T15:51:39.758Z,31.45
2023-02-03T15:54:41.093Z,33.97
2023-02-03T15:57:14.942Z,28.42
2023-02-03T15:59:48.604Z,29.55
2023-02-03T16:02:18.270Z,33.88
2023-02-03T16:04:46.261Z,30.13
2023-02-03T16:07:21.114Z,34.42
2023-02-03T16:10:07.901Z,31.50
2023-02-03T16:12:35.825Z,31.38
2023-02-03T16:15:05.039Z,43.78
2023-02-03T16:17:38.786Z,32.78
2023-02-03T16:20:11.842Z,28.50
2023-02-03T16:22:45.687Z,36.67
2023-02-03T16:25:20.479Z,36.25
2023-02-03T16:28:25.857Z,33.88
2023-02-03T16:31:22.078Z,31.10
2023-02-03T16:34:09.681Z,36.78
2023-02-03T16:37:01.460Z,35.33
2023-02-03T16:39:47.483Z,29.25
2023-02-03T16:42:40.759Z,32.92
2023-02-03T16:45:33.498Z,39.67
2023-02-03T16:48:21.235Z,26.73
2023-02-03T16:50:57.562Z,30.90
2023-02-03T16:53:30.456Z,25.85
2023-02-03T16:56:00.725Z,38.15
2023-02-03T16:58:29.426Z,31.30
2023-02-03T17:00:59.495Z,31.30
2023-02-03T17:03:28.483Z,31.20
2023-02-03T17:05:57.535Z,34.67
2023-02-03T17:08:26.378Z,26.30
2023-02-03T17:10:53.979Z,28.48
2023-02-03T17:13:23.101Z,27.15
2023-02-03T17:15:55.414Z,28.65
2023-02-03T17:18:22.855Z,29.85
2023-02-03T17:20:51.281Z,34.75
2023-02-03T17:23:18.619Z,37.20
2023-02-03T17:25:49.322Z,30.65
2023-02-03T17:30:44.472Z,36.05
2023-02-03T17:33:12.156Z,30.73
2023-02-03T17:35:44.738Z,34.20
2023-02-03T17:38:14.423Z,34.00
2023-02-03T17:54:38.298Z,30.13
2023-02-03T17:57:05.730Z,26.55
2023-02-03T17:59:35.507Z,36.80
2023-02-03T18:02:02.937Z,29.57
2023-02-03T18:04:30.398Z,26.17
2023-02-03T18:06:58.361Z,30.30
2023-02-03T18:09:25.641Z,38.38
2023-02-03T18:11:52.951Z,28.25
2023-02-03T18:14:21.411Z,30.63
2023-02-03T18:16:49.126Z,25.77
2023-02-03T18:19:17.008Z,28.67
2023-02-03T18:21:44.966Z,36.20
2023-02-03T18:24:13.977Z,29.42
2023-02-03T18:26:52.208Z,35.60
2023-02-03T18:29:20.319Z,25.60
2023-02-03T18:31:48.432Z,33.10
2023-02-03T18:34:17.019Z,35.53
2023-02-03T18:36:45.079Z,39.67
2023-02-03T18:39:15.212Z,33.65
2023-02-03T18:41:42.703Z,37.85
2023-02-03T18:44:10.093Z,26.83
2023-02-03T18:46:37.444Z,34.00
2023-02-03T18:49:08.024Z,37.53
2023-02-03T18:51:35.703Z,33.97
2023-02-03T18:54:04.075Z,38.80
2023-02-03T18:56:37.178Z,30.88
2023-02-03T18:59:09.990Z,28.15
2023-02-03T19:01:39.081Z,31.55
2023-02-03T19:04:06.940Z,39.25
2023-02-03T19:06:35.914Z,37.63
2023-02-03T19:09:05.588Z,32.58
2023-02-03T19:11:33.817Z,41.47
2023-02-03T19:14:01.228Z,42.78
2023-02-03T19:16:28.829Z,33.38
2023-02-03T19:18:56.370Z,37.50
2023-02-03T19:21:23.645Z,36.17
2023-02-03T19:23:51.013Z,45.13
2023-02-03T19:26:18.592Z,38.55
2023-02-03T19:28:46.158Z,36.35
2023-02-03T19:31:15.719Z,33.10
2023-02-03T19:33:43.275Z,45.33
2023-02-03T19:36:11.486Z,37.08
2023-02-03T19:38:39.292Z,35.35
2023-02-03T19:41:08.112Z,39.40
2023-02-03T19:43:36.182Z,41.65
2023-02-03T19:46:03.581Z,36.63
2023-02-03T19:48:30.833Z,40.45
2023-02-03T19:50:58.184Z,30.05
2023-02-03T19:53:25.634Z,46.65
2023-02-03T19:55:53.346Z,39.88
2023-02-03T19:58:21.300Z,33.58
2023-02-03T20:00:48.621Z,31.88
2023-02-03T20:03:18.144Z,37.70
2023-02-03T20:05:47.247Z,38.22
2023-02-03T20:08:17.053Z,34.05
2023-02-03T20:10:45.583Z,34.73
2023-02-03T20:13:13.731Z,36.75
2023-02-03T20:15:41.832Z,46.17
2023-02-03T20:18:09.224Z,37.90
2023-02-03T20:20:36.712Z,45.65
2023-02-03T20:23:04.074Z,44.00
2023-02-03T20:25:33.470Z,31.25
2023-02-03T20:28:02.752Z,41.20
2023-02-03T20:30:30.415Z,40.38
2023-02-03T20:32:58.666Z,36.47
2023-02-03T20:35:27.375Z,30.48
2023-02-03T20:37:54.703Z,27.52
2023-02-03T20:40:24.064Z,40.22
2023-02-03T20:42:53.046Z,37.75
2023-02-03T20:45:23.256Z,29.45
2023-02-03T20:47:51.573Z,35.72
2023-02-03T20:50:25.155Z,33.20
2023-02-03T20:52:57.179Z,37.22
2023-02-03T20:55:24.556Z,44.15
2023-02-03T20:57:55.049Z,44.08
2023-02-03T21:00:26.243Z,33.00
2023-02-03T21:03:12.930Z,37.88
2023-02-03T21:05:42.868Z,44.88
2023-02-03T21:08:19.690Z,42.00
2023-02-03T21:10:48.511Z,40.70
2023-02-03T21:13:24.130Z,42.10
2023-02-03T21:15:54.922Z,38.72
2023-02-03T21:20:55.509Z,44.55
2023-02-03T21:23:26.761Z,30.73
2023-02-03T21:25:54.604Z,38.42
2023-02-03T21:28:28.023Z,43.42
2023-02-03T21:30:55.710Z,44.10
2023-02-03T21:33:32.771Z,44.28
2023-02-03T21:36:00.133Z,30.85
2023-02-03T21:38:28.323Z,50.95
2023-02-03T21:40:55.660Z,43.08
2023-02-03T21:43:24.679Z,43.40
2023-02-03T21:45:52.086Z,38.50
2023-02-03T21:48:23.729Z,47.53
2023-02-03T21:50:55.269Z,42.10
2023-02-03T21:53:35.939Z,43.05
2023-02-03T21:56:28.029Z,36.20
2023-02-03T21:59:00.280Z,37.20
2023-02-03T22:01:36.316Z,33.55
2023-02-03T22:04:06.582Z,51.45
2023-02-03T22:06:53.350Z,45.45
2023-02-03T22:09:26.412Z,44.63
2023-02-03T22:11:53.718Z,39.83
2023-02-03T22:14:21.139Z,35.10
2023-02-03T22:16:48.811Z,33.45
2023-02-03T22:19:18.961Z,34.83
2023-02-03T22:21:47.778Z,43.55
2023-02-03T22:24:14.957Z,43.47
2023-02-03T22:26:42.146Z,40.67
2023-02-03T22:29:09.414Z,37.63
2023-02-03T22:31:36.809Z,27.80
2023-02-03T22:34:04.085Z,39.92
2023-02-03T22:36:33.395Z,37.13
2023-02-03T22:39:00.713Z,55.03
2023-02-03T22:41:27.922Z,41.22
2023-02-03T22:44:00.283Z,48.10
2023-02-03T22:46:27.629Z,37.42
2023-02-03T22:48:54.976Z,34.53
2023-02-03T22:51:22.249Z,40.60
2023-02-03T22:53:49.422Z,40.42
2023-02-03T22:56:16.663Z,39.10
2023-02-03T22:58:44.001Z,38.30
2023-02-03T23:01:11.247Z,36.25
2023-02-03T23:03:38.618Z,43.03
2023-02-03T23:06:06.188Z,35.28
2023-02-03T23:08:33.777Z,37.83
2023-02-03T23:11:01.135Z,46.97
2023-02-03T23:13:28.852Z,38.85
2023-02-03T23:15:56.420Z,46.03
2023-02-03T23:18:23.847Z,45.80
2023-02-03T23:20:51.337Z,40.70
2023-02-03T23:23:18.573Z,34.92
2023-02-03T23:25:46.097Z,29.45
2023-02-03T23:28:13.563Z,42.22
2023-02-03T23:30:42.486Z,38.88
2023-02-03T23:33:09.935Z,32.13
2023-02-03T23:35:46.226Z,29.45
2023-02-03T23:38:15.144Z,38.88
2023-02-03T23:40:43.377Z,38.63
2023-02-03T23:43:10.645Z,36.65
2023-02-03T23:45:37.967Z,42.28
2023-02-03T23:48:05.848Z,34.05
2023-02-03T23:50:33.788Z,44.00
2023-02-03T23:53:03.881Z,34.60
2023-02-03T23:55:33.802Z,37.90
2023-02-03T23:58:01.098Z,40.67
